sensor_id;sensor_type;location;lat;lon;timestamp;P1;durP1;ratioP1;P2;durP2;ratioP2
39524;SDS011;25203;50.754;6.978;2022-08-25T00:01:32;3.83;;;2.35;;
39524;SDS011;25203;50.754;6.978;2022-08-25T00:03:36;2.88;;;1.67;;
39524;SDS011;25203;50.754;6.978;2022-08-25T00:05:37;2.88;;;2.05;;
39524;SDS011;25203;50.754;6.978;2022-08-25T00:07:38;5.00;;;2.53;;
39524;SDS011;25203;50.754;6.978;2022-08-25T00:09:39;6.25;;;2.28;;
39524;SDS011;25203;50.754;6.978;2022-08-25T00:11:40;2.33;;;2.13;;
39524;SDS011;25203;50.754;6.978;2022-08-25T00:13:42;4.57;;;1.90;;
39524;SDS011;25203;50.754;6.978;2022-08-25T00:15:44;7.65;;;2.30;;
39524;SDS011;25203;50.754;6.978;2022-08-25T00:17:45;2.60;;;1.80;;
39524;SDS011;25203;50.754;6.978;2022-08-25T00:19:46;6.22;;;2.10;;
39524;SDS011;25203;50.754;6.978;2022-08-25T00:21:47;5.85;;;2.00;;
39524;SDS011;25203;50.754;6.978;2022-08-25T00:23:47;1.98;;;1.70;;
39524;SDS011;25203;50.754;6.978;2022-08-25T00:25:49;2.20;;;1.70;;
39524;SDS011;25203;50.754;6.978;2022-08-25T00:27:50;3.05;;;1.88;;
39524;SDS011;25203;50.754;6.978;2022-08-25T00:29:50;3.40;;;2.03;;
39524;SDS011;25203;50.754;6.978;2022-08-25T00:31:51;3.60;;;1.95;;
39524;SDS011;25203;50.754;6.978;2022-08-25T00:33:52;2.75;;;2.35;;
39524;SDS011;25203;50.754;6.978;2022-08-25T00:35:54;3.83;;;1.92;;
39524;SDS011;25203;50.754;6.978;2022-08-25T00:37:55;3.08;;;1.90;;
39524;SDS011;25203;50.754;6.978;2022-08-25T00:39:55;8.05;;;1.90;;
39524;SDS011;25203;50.754;6.978;2022-08-25T00:41:58;2.30;;;2.05;;
39524;SDS011;25203;50.754;6.978;2022-08-25T00:44:00;3.05;;;2.03;;
39524;SDS011;25203;50.754;6.978;2022-08-25T00:46:03;3.28;;;2.38;;
39524;SDS011;25203;50.754;6.978;2022-08-25T00:48:04;2.65;;;1.85;;
39524;SDS011;25203;50.754;6.978;2022-08-25T00:50:06;3.25;;;2.20;;
39524;SDS011;25203;50.754;6.978;2022-08-25T00:52:12;8.77;;;2.13;;
39524;SDS011;25203;50.754;6.978;2022-08-25T00:54:16;3.15;;;1.80;;
39524;SDS011;25203;50.754;6.978;2022-08-25T00:56:24;3.72;;;2.10;;
39524;SDS011;25203;50.754;6.978;2022-08-25T00:58:26;3.25;;;1.98;;
39524;SDS011;25203;50.754;6.978;2022-08-25T01:00:31;3.67;;;2.00;;
39524;SDS011;25203;50.754;6.978;2022-08-25T01:02:37;5.97;;;2.80;;
39524;SDS011;25203;50.754;6.978;2022-08-25T01:04:38;2.40;;;2.08;;
39524;SDS011;25203;50.754;6.978;2022-08-25T01:06:40;7.47;;;2.08;;
39524;SDS011;25203;50.754;6.978;2022-08-25T01:08:43;2.20;;;1.90;;
39524;SDS011;25203;50.754;6.978;2022-08-25T01:10:44;2.38;;;1.98;;
39524;SDS011;25203;50.754;6.978;2022-08-25T01:12:46;3.20;;;2.20;;
39524;SDS011;25203;50.754;6.978;2022-08-25T01:14:48;2.90;;;2.13;;
39524;SDS011;25203;50.754;6.978;2022-08-25T01:16:50;2.63;;;2.13;;
39524;SDS011;25203;50.754;6.978;2022-08-25T01:18:53;3.25;;;2.17;;
39524;SDS011;25203;50.754;6.978;2022-08-25T01:20:56;3.80;;;2.42;;
39524;SDS011;25203;50.754;6.978;2022-08-25T01:22:59;6.57;;;2.30;;
39524;SDS011;25203;50.754;6.978;2022-08-25T01:25:01;12.70;;;2.40;;
39524;SDS011;25203;50.754;6.978;2022-08-25T01:27:07;5.38;;;2.40;;
39524;SDS011;25203;50.754;6.978;2022-08-25T01:29:08;4.90;;;2.20;;
39524;SDS011;25203;50.754;6.978;2022-08-25T01:31:24;2.92;;;2.25;;
39524;SDS011;25203;50.754;6.978;2022-08-25T01:33:25;3.83;;;2.20;;
39524;SDS011;25203;50.754;6.978;2022-08-25T01:35:26;3.80;;;2.17;;
39524;SDS011;25203;50.754;6.978;2022-08-25T01:37:27;5.28;;;2.72;;
39524;SDS011;25203;50.754;6.978;2022-08-25T01:39:28;8.18;;;2.13;;
39524;SDS011;25203;50.754;6.978;2022-08-25T01:43:40;4.45;;;2.55;;
39524;SDS011;25203;50.754;6.978;2022-08-25T01:45:42;3.80;;;2.08;;
39524;SDS011;25203;50.754;6.978;2022-08-25T01:47:45;3.65;;;2.10;;
39524;SDS011;25203;50.754;6.978;2022-08-25T01:49:46;4.95;;;2.47;;
39524;SDS011;25203;50.754;6.978;2022-08-25T01:51:50;4.05;;;2.08;;
39524;SDS011;25203;50.754;6.978;2022-08-25T01:54:11;4.40;;;2.55;;
39524;SDS011;25203;50.754;6.978;2022-08-25T01:56:13;3.63;;;2.78;;
39524;SDS011;25203;50.754;6.978;2022-08-25T01:58:14;4.63;;;2.28;;
39524;SDS011;25203;50.754;6.978;2022-08-25T02:00:15;2.95;;;2.40;;
39524;SDS011;25203;50.754;6.978;2022-08-25T02:02:16;3.25;;;2.00;;
39524;SDS011;25203;50.754;6.978;2022-08-25T02:04:17;2.90;;;2.28;;
39524;SDS011;25203;50.754;6.978;2022-08-25T02:06:19;3.85;;;2.50;;
39524;SDS011;25203;50.754;6.978;2022-08-25T02:08:31;3.17;;;2.45;;
39524;SDS011;25203;50.754;6.978;2022-08-25T02:10:32;2.60;;;2.40;;
39524;SDS011;25203;50.754;6.978;2022-08-25T02:12:33;2.40;;;2.20;;
39524;SDS011;25203;50.754;6.978;2022-08-25T02:14:35;3.30;;;2.08;;
39524;SDS011;25203;50.754;6.978;2022-08-25T02:16:37;3.53;;;2.08;;
39524;SDS011;25203;50.754;6.978;2022-08-25T02:18:39;2.38;;;2.00;;
39524;SDS011;25203;50.754;6.978;2022-08-25T02:20:40;2.92;;;2.33;;
39524;SDS011;25203;50.754;6.978;2022-08-25T02:22:40;3.33;;;2.30;;
39524;SDS011;25203;50.754;6.978;2022-08-25T02:24:41;3.20;;;2.45;;
39524;SDS011;25203;50.754;6.978;2022-08-25T02:26:42;3.33;;;2.15;;
39524;SDS011;25203;50.754;6.978;2022-08-25T02:28:42;3.33;;;2.47;;
39524;SDS011;25203;50.754;6.978;2022-08-25T02:30:45;2.95;;;2.13;;
39524;SDS011;25203;50.754;6.978;2022-08-25T02:32:46;2.55;;;2.30;;
39524;SDS011;25203;50.754;6.978;2022-08-25T02:34:47;4.38;;;2.78;;
39524;SDS011;25203;50.754;6.978;2022-08-25T02:36:48;3.83;;;2.45;;
39524;SDS011;25203;50.754;6.978;2022-08-25T02:38:49;2.45;;;2.25;;
39524;SDS011;25203;50.754;6.978;2022-08-25T02:40:49;2.70;;;2.17;;
39524;SDS011;25203;50.754;6.978;2022-08-25T02:42:51;5.18;;;3.17;;
39524;SDS011;25203;50.754;6.978;2022-08-25T02:44:52;3.63;;;2.78;;
39524;SDS011;25203;50.754;6.978;2022-08-25T02:46:53;2.67;;;2.45;;
39524;SDS011;25203;50.754;6.978;2022-08-25T02:48:53;3.47;;;2.60;;
39524;SDS011;25203;50.754;6.978;2022-08-25T02:50:54;4.78;;;2.55;;
39524;SDS011;25203;50.754;6.978;2022-08-25T02:52:59;3.28;;;2.47;;
39524;SDS011;25203;50.754;6.978;2022-08-25T02:55:01;2.85;;;2.50;;
39524;SDS011;25203;50.754;6.978;2022-08-25T02:57:03;3.65;;;2.10;;
39524;SDS011;25203;50.754;6.978;2022-08-25T02:59:04;4.50;;;2.47;;
39524;SDS011;25203;50.754;6.978;2022-08-25T03:01:05;3.00;;;2.03;;
39524;SDS011;25203;50.754;6.978;2022-08-25T03:03:08;3.92;;;2.53;;
39524;SDS011;25203;50.754;6.978;2022-08-25T03:05:09;3.13;;;2.22;;
39524;SDS011;25203;50.754;6.978;2022-08-25T03:07:11;3.75;;;2.83;;
39524;SDS011;25203;50.754;6.978;2022-08-25T03:09:11;6.68;;;3.03;;
39524;SDS011;25203;50.754;6.978;2022-08-25T03:11:12;3.85;;;3.00;;
39524;SDS011;25203;50.754;6.978;2022-08-25T03:13:13;2.88;;;2.47;;
39524;SDS011;25203;50.754;6.978;2022-08-25T03:15:14;4.47;;;2.58;;
39524;SDS011;25203;50.754;6.978;2022-08-25T03:17:15;4.47;;;2.95;;
39524;SDS011;25203;50.754;6.978;2022-08-25T03:19:16;3.92;;;2.70;;
39524;SDS011;25203;50.754;6.978;2022-08-25T03:21:17;3.80;;;3.17;;
39524;SDS011;25203;50.754;6.978;2022-08-25T03:23:18;5.10;;;2.67;;
39524;SDS011;25203;50.754;6.978;2022-08-25T03:25:19;6.13;;;3.10;;
39524;SDS011;25203;50.754;6.978;2022-08-25T03:27:38;4.25;;;2.90;;
39524;SDS011;25203;50.754;6.978;2022-08-25T03:29:39;3.72;;;2.85;;
39524;SDS011;25203;50.754;6.978;2022-08-25T03:31:42;4.07;;;2.90;;
39524;SDS011;25203;50.754;6.978;2022-08-25T03:33:44;5.18;;;3.08;;
39524;SDS011;25203;50.754;6.978;2022-08-25T03:35:45;2.90;;;2.53;;
39524;SDS011;25203;50.754;6.978;2022-08-25T03:37:45;3.90;;;2.85;;
39524;SDS011;25203;50.754;6.978;2022-08-25T03:39:46;3.13;;;2.83;;
39524;SDS011;25203;50.754;6.978;2022-08-25T03:41:46;3.80;;;2.88;;
39524;SDS011;25203;50.754;6.978;2022-08-25T03:43:48;6.32;;;3.35;;
39524;SDS011;25203;50.754;6.978;2022-08-25T03:45:49;3.70;;;2.83;;
39524;SDS011;25203;50.754;6.978;2022-08-25T03:47:50;3.58;;;2.90;;
39524;SDS011;25203;50.754;6.978;2022-08-25T03:49:52;5.97;;;3.15;;
39524;SDS011;25203;50.754;6.978;2022-08-25T03:51:52;4.32;;;3.13;;
39524;SDS011;25203;50.754;6.978;2022-08-25T03:53:54;2.92;;;2.42;;
39524;SDS011;25203;50.754;6.978;2022-08-25T03:55:55;4.05;;;3.17;;
39524;SDS011;25203;50.754;6.978;2022-08-25T03:57:56;2.70;;;2.50;;
39524;SDS011;25203;50.754;6.978;2022-08-25T03:59:57;4.88;;;3.40;;
39524;SDS011;25203;50.754;6.978;2022-08-25T04:01:57;5.65;;;3.20;;
39524;SDS011;25203;50.754;6.978;2022-08-25T04:03:58;4.00;;;2.85;;
39524;SDS011;25203;50.754;6.978;2022-08-25T04:06:02;4.18;;;2.95;;
39524;SDS011;25203;50.754;6.978;2022-08-25T04:08:04;11.77;;;3.60;;
39524;SDS011;25203;50.754;6.978;2022-08-25T04:10:07;3.47;;;2.90;;
39524;SDS011;25203;50.754;6.978;2022-08-25T04:12:09;3.72;;;3.20;;
39524;SDS011;25203;50.754;6.978;2022-08-25T04:14:09;5.25;;;3.50;;
39524;SDS011;25203;50.754;6.978;2022-08-25T04:16:13;4.65;;;3.47;;
39524;SDS011;25203;50.754;6.978;2022-08-25T04:18:22;6.55;;;3.08;;
39524;SDS011;25203;50.754;6.978;2022-08-25T04:20:22;3.25;;;2.90;;
39524;SDS011;25203;50.754;6.978;2022-08-25T04:22:23;4.15;;;3.47;;
39524;SDS011;25203;50.754;6.978;2022-08-25T04:24:24;4.95;;;3.08;;
39524;SDS011;25203;50.754;6.978;2022-08-25T04:26:29;4.72;;;3.72;;
39524;SDS011;25203;50.754;6.978;2022-08-25T04:28:32;4.20;;;3.70;;
39524;SDS011;25203;50.754;6.978;2022-08-25T04:30:33;4.65;;;3.50;;
39524;SDS011;25203;50.754;6.978;2022-08-25T04:32:35;5.60;;;3.30;;
39524;SDS011;25203;50.754;6.978;2022-08-25T04:34:35;5.60;;;3.00;;
39524;SDS011;25203;50.754;6.978;2022-08-25T04:36:36;4.72;;;3.63;;
39524;SDS011;25203;50.754;6.978;2022-08-25T04:38:37;5.50;;;3.38;;
39524;SDS011;25203;50.754;6.978;2022-08-25T04:40:42;4.43;;;3.38;;
39524;SDS011;25203;50.754;6.978;2022-08-25T04:42:42;11.07;;;3.42;;
39524;SDS011;25203;50.754;6.978;2022-08-25T04:44:47;4.60;;;3.50;;
39524;SDS011;25203;50.754;6.978;2022-08-25T04:46:48;5.78;;;3.75;;
39524;SDS011;25203;50.754;6.978;2022-08-25T04:48:50;5.82;;;3.30;;
39524;SDS011;25203;50.754;6.978;2022-08-25T04:50:51;3.70;;;3.03;;
39524;SDS011;25203;50.754;6.978;2022-08-25T04:52:52;6.30;;;3.42;;
39524;SDS011;25203;50.754;6.978;2022-08-25T04:54:52;2.88;;;2.65;;
39524;SDS011;25203;50.754;6.978;2022-08-25T04:56:53;5.95;;;3.42;;
39524;SDS011;25203;50.754;6.978;2022-08-25T04:58:54;6.40;;;4.13;;
39524;SDS011;25203;50.754;6.978;2022-08-25T05:01:00;5.05;;;3.53;;
39524;SDS011;25203;50.754;6.978;2022-08-25T05:03:02;5.65;;;3.45;;
39524;SDS011;25203;50.754;6.978;2022-08-25T05:05:04;5.85;;;3.45;;
39524;SDS011;25203;50.754;6.978;2022-08-25T05:07:06;6.50;;;3.67;;
39524;SDS011;25203;50.754;6.978;2022-08-25T05:09:06;5.18;;;3.40;;
39524;SDS011;25203;50.754;6.978;2022-08-25T05:11:08;5.32;;;3.35;;
39524;SDS011;25203;50.754;6.978;2022-08-25T05:13:12;4.65;;;3.63;;
39524;SDS011;25203;50.754;6.978;2022-08-25T05:15:12;3.47;;;3.17;;
39524;SDS011;25203;50.754;6.978;2022-08-25T05:17:31;3.20;;;2.90;;
39524;SDS011;25203;50.754;6.978;2022-08-25T05:19:32;5.82;;;3.20;;
39524;SDS011;25203;50.754;6.978;2022-08-25T05:21:34;7.32;;;3.60;;
39524;SDS011;25203;50.754;6.978;2022-08-25T05:23:37;3.72;;;3.08;;
39524;SDS011;25203;50.754;6.978;2022-08-25T05:25:38;3.17;;;2.80;;
39524;SDS011;25203;50.754;6.978;2022-08-25T05:27:39;6.38;;;3.10;;
39524;SDS011;25203;50.754;6.978;2022-08-25T05:29:41;3.90;;;3.25;;
39524;SDS011;25203;50.754;6.978;2022-08-25T05:31:41;5.28;;;3.10;;
39524;SDS011;25203;50.754;6.978;2022-08-25T05:33:44;3.47;;;3.10;;
39524;SDS011;25203;50.754;6.978;2022-08-25T05:35:45;3.47;;;2.85;;
39524;SDS011;25203;50.754;6.978;2022-08-25T05:37:46;5.47;;;3.20;;
39524;SDS011;25203;50.754;6.978;2022-08-25T05:39:46;3.85;;;3.00;;
39524;SDS011;25203;50.754;6.978;2022-08-25T05:41:47;4.40;;;3.10;;
39524;SDS011;25203;50.754;6.978;2022-08-25T05:43:48;4.30;;;3.70;;
39524;SDS011;25203;50.754;6.978;2022-08-25T05:45:52;3.42;;;2.88;;
39524;SDS011;25203;50.754;6.978;2022-08-25T05:47:54;4.55;;;3.28;;
39524;SDS011;25203;50.754;6.978;2022-08-25T05:49:54;5.13;;;3.17;;
39524;SDS011;25203;50.754;6.978;2022-08-25T05:51:55;6.72;;;3.22;;
39524;SDS011;25203;50.754;6.978;2022-08-25T05:53:55;5.78;;;3.28;;
39524;SDS011;25203;50.754;6.978;2022-08-25T05:55:57;2.80;;;2.45;;
39524;SDS011;25203;50.754;6.978;2022-08-25T05:57:58;5.53;;;3.83;;
39524;SDS011;25203;50.754;6.978;2022-08-25T05:59:59;5.72;;;3.10;;
39524;SDS011;25203;50.754;6.978;2022-08-25T06:02:00;5.18;;;2.92;;
39524;SDS011;25203;50.754;6.978;2022-08-25T06:04:19;4.30;;;3.30;;
39524;SDS011;25203;50.754;6.978;2022-08-25T06:06:21;6.68;;;2.83;;
39524;SDS011;25203;50.754;6.978;2022-08-25T06:08:24;5.97;;;3.78;;
39524;SDS011;25203;50.754;6.978;2022-08-25T06:10:29;23.88;;;4.60;;
39524;SDS011;25203;50.754;6.978;2022-08-25T06:12:31;8.88;;;3.03;;
39524;SDS011;25203;50.754;6.978;2022-08-25T06:14:34;14.95;;;5.13;;
39524;SDS011;25203;50.754;6.978;2022-08-25T06:16:36;4.53;;;3.33;;
39524;SDS011;25203;50.754;6.978;2022-08-25T06:18:37;5.35;;;3.00;;
39524;SDS011;25203;50.754;6.978;2022-08-25T06:20:38;5.10;;;3.30;;
39524;SDS011;25203;50.754;6.978;2022-08-25T06:22:39;3.72;;;2.88;;
39524;SDS011;25203;50.754;6.978;2022-08-25T06:24:40;5.72;;;2.83;;
39524;SDS011;25203;50.754;6.978;2022-08-25T06:26:40;7.10;;;2.90;;
39524;SDS011;25203;50.754;6.978;2022-08-25T06:28:42;4.00;;;2.67;;
39524;SDS011;25203;50.754;6.978;2022-08-25T06:30:43;3.42;;;2.60;;
39524;SDS011;25203;50.754;6.978;2022-08-25T06:32:45;4.78;;;2.33;;
39524;SDS011;25203;50.754;6.978;2022-08-25T06:34:46;8.93;;;3.20;;
39524;SDS011;25203;50.754;6.978;2022-08-25T06:36:46;4.60;;;2.40;;
39524;SDS011;25203;50.754;6.978;2022-08-25T06:38:49;5.00;;;2.30;;
39524;SDS011;25203;50.754;6.978;2022-08-25T06:40:51;7.15;;;2.38;;
39524;SDS011;25203;50.754;6.978;2022-08-25T06:42:52;7.28;;;2.40;;
39524;SDS011;25203;50.754;6.978;2022-08-25T06:44:53;5.32;;;2.25;;
39524;SDS011;25203;50.754;6.978;2022-08-25T06:46:53;5.30;;;2.50;;
39524;SDS011;25203;50.754;6.978;2022-08-25T06:48:54;5.95;;;2.72;;
39524;SDS011;25203;50.754;6.978;2022-08-25T06:50:56;4.32;;;2.22;;
39524;SDS011;25203;50.754;6.978;2022-08-25T06:52:57;2.47;;;1.98;;
39524;SDS011;25203;50.754;6.978;2022-08-25T06:54:57;4.78;;;2.40;;
39524;SDS011;25203;50.754;6.978;2022-08-25T06:56:58;4.80;;;2.70;;
39524;SDS011;25203;50.754;6.978;2022-08-25T06:59:00;11.25;;;2.60;;
39524;SDS011;25203;50.754;6.978;2022-08-25T07:01:08;7.35;;;2.10;;
39524;SDS011;25203;50.754;6.978;2022-08-25T07:03:13;4.93;;;2.70;;
39524;SDS011;25203;50.754;6.978;2022-08-25T07:05:14;5.28;;;3.10;;
39524;SDS011;25203;50.754;6.978;2022-08-25T07:07:15;3.60;;;2.58;;
39524;SDS011;25203;50.754;6.978;2022-08-25T07:09:16;6.53;;;2.80;;
39524;SDS011;25203;50.754;6.978;2022-08-25T07:11:16;8.65;;;2.92;;
39524;SDS011;25203;50.754;6.978;2022-08-25T07:13:18;8.02;;;3.28;;
39524;SDS011;25203;50.754;6.978;2022-08-25T07:15:18;5.25;;;2.58;;
39524;SDS011;25203;50.754;6.978;2022-08-25T07:17:20;8.82;;;3.35;;
39524;SDS011;25203;50.754;6.978;2022-08-25T07:19:22;4.50;;;2.65;;
39524;SDS011;25203;50.754;6.978;2022-08-25T07:21:23;7.72;;;2.97;;
39524;SDS011;25203;50.754;6.978;2022-08-25T07:23:26;10.50;;;3.70;;
39524;SDS011;25203;50.754;6.978;2022-08-25T07:25:26;9.77;;;3.10;;
39524;SDS011;25203;50.754;6.978;2022-08-25T07:27:28;3.70;;;2.80;;
39524;SDS011;25203;50.754;6.978;2022-08-25T07:29:28;4.00;;;3.10;;
39524;SDS011;25203;50.754;6.978;2022-08-25T07:31:31;5.38;;;2.90;;
39524;SDS011;25203;50.754;6.978;2022-08-25T07:33:32;3.30;;;3.00;;
39524;SDS011;25203;50.754;6.978;2022-08-25T07:35:33;5.57;;;3.38;;
39524;SDS011;25203;50.754;6.978;2022-08-25T07:37:38;6.68;;;2.92;;
39524;SDS011;25203;50.754;6.978;2022-08-25T07:39:39;4.55;;;2.88;;
39524;SDS011;25203;50.754;6.978;2022-08-25T07:41:40;4.22;;;2.80;;
39524;SDS011;25203;50.754;6.978;2022-08-25T07:43:41;8.00;;;2.92;;
39524;SDS011;25203;50.754;6.978;2022-08-25T07:45:42;6.40;;;3.22;;
39524;SDS011;25203;50.754;6.978;2022-08-25T07:47:42;7.60;;;3.40;;
39524;SDS011;25203;50.754;6.978;2022-08-25T07:49:43;5.45;;;2.80;;
39524;SDS011;25203;50.754;6.978;2022-08-25T07:51:44;5.03;;;2.63;;
39524;SDS011;25203;50.754;6.978;2022-08-25T07:53:46;6.82;;;3.08;;
39524;SDS011;25203;50.754;6.978;2022-08-25T07:55:46;5.40;;;2.95;;
39524;SDS011;25203;50.754;6.978;2022-08-25T07:57:47;6.00;;;2.78;;
39524;SDS011;25203;50.754;6.978;2022-08-25T07:59:48;7.47;;;3.25;;
39524;SDS011;25203;50.754;6.978;2022-08-25T08:01:49;4.93;;;2.88;;
39524;SDS011;25203;50.754;6.978;2022-08-25T08:03:49;13.73;;;3.30;;
39524;SDS011;25203;50.754;6.978;2022-08-25T08:05:51;4.90;;;2.90;;
39524;SDS011;25203;50.754;6.978;2022-08-25T08:07:52;5.28;;;2.80;;
39524;SDS011;25203;50.754;6.978;2022-08-25T08:09:53;3.42;;;2.65;;
39524;SDS011;25203;50.754;6.978;2022-08-25T08:11:54;6.78;;;3.00;;
39524;SDS011;25203;50.754;6.978;2022-08-25T08:13:56;4.03;;;3.15;;
39524;SDS011;25203;50.754;6.978;2022-08-25T08:15:57;4.78;;;2.90;;
39524;SDS011;25203;50.754;6.978;2022-08-25T08:17:58;3.85;;;2.53;;
39524;SDS011;25203;50.754;6.978;2022-08-25T08:19:59;3.63;;;2.85;;
39524;SDS011;25203;50.754;6.978;2022-08-25T08:22:00;5.88;;;3.10;;
39524;SDS011;25203;50.754;6.978;2022-08-25T08:24:03;8.77;;;3.10;;
39524;SDS011;25203;50.754;6.978;2022-08-25T08:26:04;6.00;;;4.07;;
39524;SDS011;25203;50.754;6.978;2022-08-25T08:28:05;9.85;;;3.47;;
39524;SDS011;25203;50.754;6.978;2022-08-25T08:30:06;5.50;;;2.92;;
39524;SDS011;25203;50.754;6.978;2022-08-25T08:32:09;6.80;;;3.35;;
39524;SDS011;25203;50.754;6.978;2022-08-25T08:34:12;5.30;;;3.15;;
39524;SDS011;25203;50.754;6.978;2022-08-25T08:36:13;4.30;;;3.10;;
39524;SDS011;25203;50.754;6.978;2022-08-25T08:38:13;3.35;;;3.05;;
39524;SDS011;25203;50.754;6.978;2022-08-25T08:40:15;4.95;;;3.17;;
39524;SDS011;25203;50.754;6.978;2022-08-25T08:42:21;4.35;;;3.35;;
39524;SDS011;25203;50.754;6.978;2022-08-25T08:47:07;4.97;;;3.42;;
39524;SDS011;25203;50.754;6.978;2022-08-25T08:49:24;7.05;;;3.00;;
39524;SDS011;25203;50.754;6.978;2022-08-25T08:51:54;9.98;;;3.35;;
39524;SDS011;25203;50.754;6.978;2022-08-25T08:54:00;4.25;;;3.13;;
39524;SDS011;25203;50.754;6.978;2022-08-25T08:56:10;10.18;;;3.03;;
39524;SDS011;25203;50.754;6.978;2022-08-25T09:00:20;5.18;;;3.03;;
39524;SDS011;25203;50.754;6.978;2022-08-25T09:02:25;5.43;;;3.08;;
39524;SDS011;25203;50.754;6.978;2022-08-25T09:04:52;7.32;;;3.10;;
39524;SDS011;25203;50.754;6.978;2022-08-25T09:06:57;6.80;;;2.90;;
39524;SDS011;25203;50.754;6.978;2022-08-25T09:09:02;5.22;;;3.17;;
39524;SDS011;25203;50.754;6.978;2022-08-25T09:11:22;7.25;;;3.47;;
39524;SDS011;25203;50.754;6.978;2022-08-25T09:13:35;8.32;;;2.95;;
39524;SDS011;25203;50.754;6.978;2022-08-25T09:15:47;6.65;;;3.05;;
39524;SDS011;25203;50.754;6.978;2022-08-25T09:18:19;3.28;;;2.70;;
39524;SDS011;25203;50.754;6.978;2022-08-25T09:20:49;3.08;;;2.55;;
39524;SDS011;25203;50.754;6.978;2022-08-25T09:23:02;5.88;;;3.05;;
39524;SDS011;25203;50.754;6.978;2022-08-25T09:25:27;4.00;;;3.00;;
39524;SDS011;25203;50.754;6.978;2022-08-25T09:31:59;4.35;;;3.03;;
39524;SDS011;25203;50.754;6.978;2022-08-25T09:34:04;7.00;;;3.05;;
39524;SDS011;25203;50.754;6.978;2022-08-25T09:36:06;8.30;;;2.85;;
39524;SDS011;25203;50.754;6.978;2022-08-25T09:38:08;7.00;;;3.08;;
39524;SDS011;25203;50.754;6.978;2022-08-25T09:40:10;5.80;;;3.28;;
39524;SDS011;25203;50.754;6.978;2022-08-25T09:42:11;6.90;;;3.28;;
39524;SDS011;25203;50.754;6.978;2022-08-25T09:46:30;13.15;;;3.33;;
39524;SDS011;25203;50.754;6.978;2022-08-25T09:48:50;3.15;;;2.72;;
39524;SDS011;25203;50.754;6.978;2022-08-25T09:50:56;7.68;;;3.20;;
39524;SDS011;25203;50.754;6.978;2022-08-25T09:53:15;3.72;;;2.90;;
39524;SDS011;25203;50.754;6.978;2022-08-25T09:55:29;3.60;;;2.92;;
39524;SDS011;25203;50.754;6.978;2022-08-25T09:59:43;3.00;;;2.60;;
39524;SDS011;25203;50.754;6.978;2022-08-25T10:01:52;5.75;;;2.92;;
39524;SDS011;25203;50.754;6.978;2022-08-25T10:03:59;6.60;;;3.20;;
39524;SDS011;25203;50.754;6.978;2022-08-25T10:06:03;4.18;;;2.78;;
39524;SDS011;25203;50.754;6.978;2022-08-25T10:08:12;6.47;;;2.65;;
39524;SDS011;25203;50.754;6.978;2022-08-25T10:10:28;4.57;;;3.10;;
39524;SDS011;25203;50.754;6.978;2022-08-25T10:12:39;3.38;;;2.72;;
39524;SDS011;25203;50.754;6.978;2022-08-25T10:14:42;4.85;;;2.90;;
39524;SDS011;25203;50.754;6.978;2022-08-25T10:16:43;5.47;;;3.20;;
39524;SDS011;25203;50.754;6.978;2022-08-25T10:18:46;6.53;;;2.83;;
39524;SDS011;25203;50.754;6.978;2022-08-25T10:21:13;4.05;;;3.40;;
39524;SDS011;25203;50.754;6.978;2022-08-25T10:23:16;4.95;;;3.25;;
39524;SDS011;25203;50.754;6.978;2022-08-25T10:25:20;5.97;;;2.85;;
39524;SDS011;25203;50.754;6.978;2022-08-25T10:35:18;3.30;;;2.95;;
39524;SDS011;25203;50.754;6.978;2022-08-25T10:40:00;4.15;;;2.83;;
39524;SDS011;25203;50.754;6.978;2022-08-25T10:47:32;4.03;;;2.75;;
39524;SDS011;25203;50.754;6.978;2022-08-25T10:49:58;3.00;;;2.50;;
39524;SDS011;25203;50.754;6.978;2022-08-25T10:52:22;4.90;;;2.80;;
39524;SDS011;25203;50.754;6.978;2022-08-25T11:01:43;5.13;;;2.30;;
39524;SDS011;25203;50.754;6.978;2022-08-25T11:04:04;4.38;;;2.90;;
39524;SDS011;25203;50.754;6.978;2022-08-25T11:08:53;5.65;;;2.58;;
39524;SDS011;25203;50.754;6.978;2022-08-25T11:13:25;6.15;;;2.55;;
39524;SDS011;25203;50.754;6.978;2022-08-25T11:15:46;2.97;;;2.40;;
39524;SDS011;25203;50.754;6.978;2022-08-25T11:20:06;3.05;;;2.55;;
39524;SDS011;25203;50.754;6.978;2022-08-25T11:24:45;4.13;;;2.45;;
39524;SDS011;25203;50.754;6.978;2022-08-25T11:26:56;4.13;;;2.78;;
39524;SDS011;25203;50.754;6.978;2022-08-25T11:29:04;6.95;;;3.63;;
39524;SDS011;25203;50.754;6.978;2022-08-25T11:31:12;4.60;;;2.60;;
39524;SDS011;25203;50.754;6.978;2022-08-25T11:33:15;5.82;;;2.78;;
39524;SDS011;25203;50.754;6.978;2022-08-25T11:35:19;2.47;;;2.28;;
39524;SDS011;25203;50.754;6.978;2022-08-25T11:37:27;2.60;;;2.40;;
39524;SDS011;25203;50.754;6.978;2022-08-25T11:41:49;2.40;;;2.20;;
39524;SDS011;25203;50.754;6.978;2022-08-25T11:57:36;2.55;;;2.05;;
39524;SDS011;25203;50.754;6.978;2022-08-25T12:00:00;2.42;;;1.95;;
39524;SDS011;25203;50.754;6.978;2022-08-25T12:02:06;4.43;;;2.05;;
39524;SDS011;25203;50.754;6.978;2022-08-25T12:04:12;4.30;;;1.92;;
39524;SDS011;25203;50.754;6.978;2022-08-25T12:08:46;3.05;;;1.77;;
39524;SDS011;25203;50.754;6.978;2022-08-25T12:11:01;1.80;;;1.70;;
39524;SDS011;25203;50.754;6.978;2022-08-25T12:17:57;4.65;;;2.03;;
39524;SDS011;25203;50.754;6.978;2022-08-25T12:20:06;2.53;;;1.60;;
39524;SDS011;25203;50.754;6.978;2022-08-25T12:24:14;3.33;;;2.17;;
39524;SDS011;25203;50.754;6.978;2022-08-25T12:26:28;3.53;;;1.90;;
39524;SDS011;25203;50.754;6.978;2022-08-25T12:31:15;5.03;;;2.65;;
39524;SDS011;25203;50.754;6.978;2022-08-25T12:36:05;2.78;;;2.25;;
39524;SDS011;25203;50.754;6.978;2022-08-25T12:38:09;3.38;;;2.40;;
39524;SDS011;25203;50.754;6.978;2022-08-25T12:40:18;3.10;;;2.75;;
39524;SDS011;25203;50.754;6.978;2022-08-25T12:42:35;4.35;;;2.65;;
39524;SDS011;25203;50.754;6.978;2022-08-25T12:44:40;2.95;;;2.53;;
39524;SDS011;25203;50.754;6.978;2022-08-25T12:46:51;6.70;;;2.45;;
39524;SDS011;25203;50.754;6.978;2022-08-25T12:49:11;3.42;;;2.38;;
39524;SDS011;25203;50.754;6.978;2022-08-25T12:54:09;3.63;;;2.58;;
39524;SDS011;25203;50.754;6.978;2022-08-25T12:56:21;6.88;;;3.00;;
39524;SDS011;25203;50.754;6.978;2022-08-25T12:58:46;3.53;;;2.40;;
39524;SDS011;25203;50.754;6.978;2022-08-25T13:06:05;2.63;;;2.40;;
39524;SDS011;25203;50.754;6.978;2022-08-25T13:10:55;4.18;;;2.58;;
39524;SDS011;25203;50.754;6.978;2022-08-25T13:15:40;3.58;;;3.20;;
39524;SDS011;25203;50.754;6.978;2022-08-25T13:17:44;3.55;;;2.92;;
39524;SDS011;25203;50.754;6.978;2022-08-25T13:19:45;6.65;;;3.40;;
39524;SDS011;25203;50.754;6.978;2022-08-25T13:21:45;3.55;;;3.10;;
39524;SDS011;25203;50.754;6.978;2022-08-25T13:23:48;4.15;;;2.67;;
39524;SDS011;25203;50.754;6.978;2022-08-25T13:25:52;4.28;;;2.45;;
39524;SDS011;25203;50.754;6.978;2022-08-25T13:27:55;3.80;;;3.20;;
39524;SDS011;25203;50.754;6.978;2022-08-25T13:29:57;3.90;;;2.80;;
39524;SDS011;25203;50.754;6.978;2022-08-25T13:31:59;3.35;;;3.05;;
39524;SDS011;25203;50.754;6.978;2022-08-25T13:34:06;3.80;;;3.20;;
39524;SDS011;25203;50.754;6.978;2022-08-25T13:36:14;3.03;;;2.72;;
39524;SDS011;25203;50.754;6.978;2022-08-25T13:38:35;3.78;;;3.08;;
39524;SDS011;25203;50.754;6.978;2022-08-25T13:40:35;4.13;;;3.58;;
39524;SDS011;25203;50.754;6.978;2022-08-25T13:42:37;4.95;;;3.03;;
39524;SDS011;25203;50.754;6.978;2022-08-25T13:44:39;4.57;;;2.95;;
39524;SDS011;25203;50.754;6.978;2022-08-25T13:46:40;7.72;;;2.95;;
39524;SDS011;25203;50.754;6.978;2022-08-25T13:48:41;5.03;;;2.78;;
39524;SDS011;25203;50.754;6.978;2022-08-25T13:50:43;3.42;;;2.90;;
39524;SDS011;25203;50.754;6.978;2022-08-25T13:52:48;3.05;;;2.85;;
39524;SDS011;25203;50.754;6.978;2022-08-25T13:54:57;4.95;;;3.33;;
39524;SDS011;25203;50.754;6.978;2022-08-25T13:59:22;3.35;;;2.83;;
39524;SDS011;25203;50.754;6.978;2022-08-25T14:01:43;9.57;;;2.83;;
39524;SDS011;25203;50.754;6.978;2022-08-25T14:03:46;4.45;;;2.85;;